createdAt,value
2023-05-24T00:01:27.273Z,46.55
2023-05-24T00:04:01.269Z,46.03
2023-05-24T00:06:30.510Z,45.88
2023-05-24T00:08:58.112Z,45.62
2023-05-24T00:11:25.380Z,45.93
2023-05-24T00:13:52.691Z,45.96
2023-05-24T00:16:19.778Z,46.41
2023-05-24T00:18:47.188Z,46.50
2023-05-24T00:21:14.762Z,46.17
2023-05-24T00:23:42.214Z,45.90
2023-05-24T00:26:09.372Z,46.38
2023-05-24T00:28:37.116Z,46.16
2023-05-24T00:31:04.241Z,46.04
2023-05-24T00:33:32.170Z,45.54
2023-05-24T00:35:59.030Z,46.03
2023-05-24T00:38:26.915Z,45.90
2023-05-24T00:40:56.487Z,45.89
2023-05-24T00:43:24.067Z,45.98
2023-05-24T00:46:12.791Z,45.48
2023-05-24T00:48:40.901Z,45.37
2023-05-24T00:51:07.691Z,45.57
2023-05-24T00:53:36.921Z,45.18
2023-05-24T00:56:04.629Z,45.11
2023-05-24T00:58:32.374Z,45.43
2023-05-24T01:01:01.555Z,45.18
2023-05-24T01:03:29.692Z,45.58
2023-05-24T01:06:03.823Z,45.24
2023-05-24T01:08:40.091Z,45.37
2023-05-24T01:11:15.472Z,45.38
2023-05-24T01:14:09.180Z,45.78
2023-05-24T01:16:41.560Z,45.86
2023-05-24T01:19:44.829Z,46.13
2023-05-24T01:22:36.584Z,46.05
2023-05-24T01:25:19.436Z,46.53
2023-05-24T01:27:47.609Z,46.14
2023-05-24T01:30:15.664Z,46.40
2023-05-24T01:32:42.807Z,46.43
2023-05-24T01:35:09.838Z,46.46
2023-05-24T01:37:36.681Z,46.43
2023-05-24T01:40:04.496Z,45.73
2023-05-24T01:42:48.955Z,46.01
2023-05-24T01:45:28.894Z,45.81
2023-05-24T01:48:31.830Z,45.83
2023-05-24T01:51:09.519Z,46.12
2023-05-24T02:00:36.367Z,45.83
2023-05-24T02:03:08.008Z,45.54
2023-05-24T02:05:35.930Z,45.57
2023-05-24T02:08:06.074Z,45.48
2023-05-24T02:10:41.713Z,45.23
2023-05-24T02:13:10.633Z,44.94
2023-05-24T02:16:07.231Z,45.22
2023-05-24T02:22:13.873Z,44.95
2023-05-24T02:24:46.137Z,45.36
2023-05-24T02:24:50.225Z,45.40
2023-05-24T02:27:29.259Z,45.81
2023-05-24T02:30:25.659Z,45.45
2023-05-24T02:32:53.082Z,45.72
2023-05-24T02:35:20.597Z,45.24
2023-05-24T02:37:47.493Z,45.58
2023-05-24T02:40:14.325Z,45.39
2023-05-24T02:42:50.705Z,45.40
2023-05-24T02:45:38.094Z,45.66
2023-05-24T02:48:06.656Z,45.52
2023-05-24T02:50:33.802Z,45.39
2023-05-24T02:53:02.194Z,45.72
2023-05-24T02:55:29.311Z,46.18
2023-05-24T02:57:56.688Z,45.66
2023-05-24T03:00:24.866Z,45.68
2023-05-24T03:03:17.390Z,45.87
2023-05-24T03:05:45.208Z,46.28
2023-05-24T03:12:41.012Z,45.61
2023-05-24T03:15:08.672Z,46.24
2023-05-24T03:17:35.648Z,46.44
2023-05-24T03:20:03.098Z,46.13
2023-05-24T03:22:31.635Z,46.19
2023-05-24T03:24:58.477Z,46.41
2023-05-24T03:27:26.315Z,46.08
2023-05-24T03:29:54.422Z,46.57
2023-05-24T03:32:24.554Z,46.87
2023-05-24T03:35:15.066Z,47.07
2023-05-24T03:37:42.604Z,47.26
2023-05-24T03:40:09.738Z,47.49
2023-05-24T03:43:08.325Z,47.42
2023-05-24T03:45:46.998Z,46.91
2023-05-24T03:48:14.045Z,47.13
2023-05-24T03:50:41.070Z,47.15
2023-05-24T03:53:08.119Z,46.70
2023-05-24T03:55:34.972Z,47.20
2023-05-24T03:58:02.002Z,47.38
2023-05-24T04:00:28.900Z,46.96
2023-05-24T04:02:56.442Z,46.96
2023-05-24T04:05:27.353Z,46.32
2023-05-24T04:07:54.382Z,46.75
2023-05-24T04:10:21.443Z,46.72
2023-05-24T04:12:49.111Z,46.58
2023-05-24T04:15:15.897Z,46.53
2023-05-24T04:17:44.370Z,46.49
2023-05-24T04:20:13.757Z,46.62
2023-05-24T04:22:41.023Z,46.80
2023-05-24T04:25:10.064Z,46.86
2023-05-24T04:27:37.418Z,47.31
2023-05-24T04:30:05.980Z,46.65
2023-05-24T04:32:33.037Z,47.21
2023-05-24T04:35:02.707Z,47.29
2023-05-24T04:37:29.671Z,47.66
2023-05-24T04:39:56.717Z,48.11
2023-05-24T04:42:23.566Z,48.21
2023-05-24T04:44:50.357Z,48.23
2023-05-24T04:47:17.604Z,48.54
2023-05-24T04:49:44.604Z,48.40
2023-05-24T04:52:11.723Z,48.66
2023-05-24T04:54:38.691Z,48.40
2023-05-24T04:57:05.881Z,48.39
2023-05-24T04:59:32.876Z,48.75
2023-05-24T05:01:59.754Z,48.13
2023-05-24T05:04:26.523Z,48.73
2023-05-24T05:06:53.602Z,47.84
2023-05-24T05:09:21.259Z,47.43
2023-05-24T05:11:48.557Z,47.49
2023-05-24T05:14:15.364Z,47.29
2023-05-24T05:16:42.880Z,47.75
2023-05-24T05:19:09.808Z,47.61
2023-05-24T05:21:36.837Z,47.56
2023-05-24T05:24:04.143Z,47.04
2023-05-24T05:26:31.519Z,46.83
2023-05-24T05:28:58.408Z,47.29
2023-05-24T05:31:26.608Z,46.58
2023-05-24T05:33:53.535Z,46.65
2023-05-24T05:36:21.184Z,46.60
2023-05-24T05:38:47.905Z,46.83
2023-05-24T05:41:14.748Z,47.02
2023-05-24T05:43:41.597Z,47.38
2023-05-24T05:46:08.691Z,47.24
2023-05-24T05:48:35.744Z,47.49
2023-05-24T05:51:02.590Z,47.30
2023-05-24T05:53:29.680Z,46.95
2023-05-24T05:55:56.622Z,46.39
2023-05-24T05:58:23.461Z,46.55
2023-05-24T06:00:50.434Z,45.91
2023-05-24T06:03:17.516Z,45.62
2023-05-24T06:05:44.580Z,45.03
2023-05-24T06:08:11.559Z,44.08
2023-05-24T06:10:38.379Z,44.81
2023-05-24T06:13:05.337Z,44.86
2023-05-24T06:15:34.448Z,44.20
2023-05-24T06:18:04.251Z,44.11
2023-05-24T06:20:31.545Z,44.94
2023-05-24T06:22:59.074Z,44.71
2023-05-24T06:25:27.636Z,44.78
2023-05-24T06:27:54.468Z,44.36
2023-05-24T06:30:21.342Z,44.60
2023-05-24T06:32:48.406Z,44.07
2023-05-24T06:35:16.313Z,43.53
2023-05-24T06:37:43.870Z,43.67
2023-05-24T06:40:13.098Z,43.50
2023-05-24T06:42:41.451Z,43.46
2023-05-24T06:45:09.477Z,43.06
2023-05-24T06:47:37.130Z,43.30
2023-05-24T06:50:05.017Z,43.48
2023-05-24T06:52:31.927Z,43.27
2023-05-24T06:54:58.834Z,42.40
2023-05-24T06:57:27.137Z,41.54
2023-05-24T06:59:54.028Z,41.27
2023-05-24T07:02:26.676Z,41.41
2023-05-24T07:04:53.968Z,41.41
2023-05-24T07:10:36.691Z,40.55
2023-05-24T07:13:04.101Z,40.41
2023-05-24T07:15:31.210Z,40.59
2023-05-24T07:17:59.331Z,39.99
2023-05-24T07:20:26.619Z,38.98
2023-05-24T07:22:54.113Z,38.52
2023-05-24T07:25:21.501Z,37.82
2023-05-24T07:27:48.371Z,38.32
2023-05-24T07:30:27.813Z,38.71
2023-05-24T07:32:58.605Z,37.65
2023-05-24T07:35:25.595Z,36.38
2023-05-24T07:37:52.899Z,35.19
2023-05-24T07:40:20.515Z,35.21
2023-05-24T07:42:47.734Z,34.97
2023-05-24T07:45:16.607Z,34.30
2023-05-24T07:47:43.502Z,34.34
2023-05-24T07:50:11.746Z,34.81
2023-05-24T07:52:41.239Z,34.25
2023-05-24T07:55:08.452Z,34.87
2023-05-24T07:57:35.262Z,35.31
2023-05-24T08:00:10.307Z,35.20
2023-05-24T08:02:38.559Z,35.15
2023-05-24T08:05:05.833Z,34.89
2023-05-24T08:07:32.620Z,34.51
2023-05-24T08:09:59.627Z,33.75
2023-05-24T08:12:26.550Z,32.90
2023-05-24T08:14:53.351Z,30.59
2023-05-24T08:17:20.280Z,26.07
2023-05-24T08:19:47.282Z,22.12
2023-05-24T08:22:14.750Z,18.78
2023-05-24T08:24:41.845Z,16.75
2023-05-24T08:27:09.008Z,14.77
2023-05-24T08:29:38.037Z,13.62
2023-05-24T08:32:09.466Z,13.09
2023-05-24T08:34:37.581Z,11.98
2023-05-24T08:37:09.341Z,11.55
2023-05-24T08:39:36.252Z,10.37
2023-05-24T08:42:09.750Z,10.42
2023-05-24T08:44:53.565Z,9.89
2023-05-24T08:47:24.256Z,9.22
2023-05-24T08:49:52.677Z,9.24
2023-05-24T08:52:21.446Z,8.91
2023-05-24T08:54:49.354Z,9.00
2023-05-24T08:57:17.912Z,8.85
2023-05-24T08:59:45.023Z,8.65
2023-05-24T09:02:14.929Z,8.05
2023-05-24T09:04:44.398Z,8.07
2023-05-24T09:07:14.007Z,7.31
2023-05-24T09:09:48.017Z,7.49
2023-05-24T09:12:28.367Z,6.94
2023-05-24T09:15:03.842Z,6.34
2023-05-24T09:17:37.875Z,6.67
2023-05-24T09:20:09.158Z,6.30
2023-05-24T09:22:41.177Z,6.59
2023-05-24T09:25:10.981Z,5.87
2023-05-24T09:27:38.540Z,5.33
2023-05-24T09:30:12.925Z,5.10
2023-05-24T09:32:40.325Z,5.50
2023-05-24T09:35:09.728Z,5.04
2023-05-24T09:37:38.734Z,5.71
2023-05-24T09:40:07.206Z,5.92
2023-05-24T09:42:34.079Z,5.18
2023-05-24T09:45:12.771Z,5.57
2023-05-24T09:47:41.374Z,4.60
2023-05-24T09:50:16.938Z,4.19
2023-05-24T09:52:43.805Z,4.57
2023-05-24T09:55:18.944Z,5.77
2023-05-24T09:58:05.836Z,7.05
2023-05-24T10:00:40.162Z,9.11
2023-05-24T10:03:09.165Z,11.20
2023-05-24T10:05:37.220Z,12.92
2023-05-24T10:08:09.017Z,13.97
2023-05-24T10:10:37.187Z,15.16
2023-05-24T10:13:04.868Z,14.36
2023-05-24T10:15:31.748Z,12.63
2023-05-24T10:18:00.691Z,10.17
2023-05-24T10:20:28.546Z,7.98
2023-05-24T10:23:01.879Z,7.24
2023-05-24T10:25:30.038Z,6.09
2023-05-24T10:28:08.972Z,5.85
2023-05-24T10:30:38.777Z,6.49
2023-05-24T10:33:08.774Z,5.24
2023-05-24T10:35:38.357Z,4.53
2023-05-24T10:38:08.852Z,4.19
2023-05-24T10:40:41.032Z,4.15
2023-05-24T10:43:08.643Z,3.43
2023-05-24T10:45:40.967Z,3.28
2023-05-24T10:48:31.633Z,2.86
2023-05-24T10:51:01.523Z,2.59
2023-05-24T10:53:29.794Z,2.61
2023-05-24T10:56:04.032Z,2.75
2023-05-24T10:58:56.437Z,2.58
2023-05-24T11:01:32.357Z,1.88
2023-05-24T11:04:07.073Z,1.62
2023-05-24T11:06:56.168Z,1.68
2023-05-24T11:09:24.171Z,2.14
2023-05-24T11:11:59.252Z,2.36
2023-05-24T11:14:35.234Z,2.55
2023-05-24T11:17:08.629Z,2.71
2023-05-24T11:19:38.122Z,2.54
2023-05-24T11:22:09.121Z,2.88
2023-05-24T11:24:37.171Z,2.96
2023-05-24T11:27:04.817Z,2.65
2023-05-24T11:29:32.502Z,2.73
2023-05-24T11:32:08.150Z,2.82
2023-05-24T11:37:34.862Z,2.72
2023-05-24T11:37:45.198Z,2.80
2023-05-24T11:40:22.017Z,3.63
2023-05-24T11:43:09.086Z,3.40
2023-05-24T11:45:36.799Z,3.24
2023-05-24T11:48:11.628Z,3.53
2023-05-24T11:50:50.711Z,4.20
2023-05-24T11:53:24.271Z,3.45
2023-05-24T11:56:38.411Z,3.83
2023-05-24T11:59:19.530Z,3.90
2023-05-24T12:01:46.496Z,4.20
2023-05-24T12:04:13.908Z,4.14
2023-05-24T12:06:43.386Z,5.22
2023-05-24T12:09:20.418Z,7.18
2023-05-24T12:11:51.519Z,9.50
2023-05-24T12:14:20.879Z,11.00
2023-05-24T12:16:57.563Z,12.87
2023-05-24T12:19:46.386Z,13.57
2023-05-24T12:22:17.520Z,14.32
2023-05-24T12:24:44.545Z,15.03
2023-05-24T12:27:13.908Z,16.18
2023-05-24T12:29:42.912Z,16.26
2023-05-24T12:32:15.128Z,17.15
2023-05-24T12:34:43.796Z,16.99
2023-05-24T12:37:15.303Z,17.16
2023-05-24T12:39:44.001Z,17.46
2023-05-24T12:42:16.153Z,17.90
2023-05-24T12:44:44.975Z,18.34
2023-05-24T12:47:12.313Z,19.07
2023-05-24T12:49:39.453Z,19.23
2023-05-24T12:52:07.042Z,18.82
2023-05-24T12:54:36.588Z,19.11
2023-05-24T12:57:03.834Z,19.07
2023-05-24T12:59:34.012Z,19.75
2023-05-24T13:02:13.847Z,19.37
2023-05-24T13:04:40.912Z,19.77
2023-05-24T13:07:11.332Z,20.53
2023-05-24T13:09:38.335Z,20.01
2023-05-24T13:12:06.225Z,20.44
2023-05-24T13:14:36.908Z,20.10
2023-05-24T13:17:04.194Z,20.52
2023-05-24T13:19:31.851Z,20.37
2023-05-24T13:22:01.064Z,20.28
2023-05-24T13:24:28.257Z,20.28
2023-05-24T13:26:58.353Z,20.53
2023-05-24T13:31:56.729Z,20.70
2023-05-24T13:34:25.965Z,20.79
2023-05-24T13:37:36.188Z,20.88
2023-05-24T13:40:20.831Z,21.63
2023-05-24T13:42:48.546Z,20.81
2023-05-24T13:45:29.620Z,20.83
2023-05-24T14:02:41.805Z,20.80
2023-05-24T14:05:25.586Z,20.39
2023-05-24T14:08:08.209Z,20.69
2023-05-24T14:10:37.116Z,20.58
2023-05-24T14:18:50.697Z,20.68
2023-05-24T14:21:27.581Z,20.80
2023-05-24T14:24:01.155Z,20.31
2023-05-24T14:26:28.860Z,19.87
2023-05-24T14:28:56.932Z,20.01
2023-05-24T14:31:24.686Z,19.91
2023-05-24T14:33:52.200Z,19.60
2023-05-24T14:36:19.366Z,19.03
2023-05-24T14:38:47.871Z,19.87
2023-05-24T14:41:16.434Z,19.68
2023-05-24T14:43:47.533Z,19.89
2023-05-24T14:46:14.934Z,19.57
2023-05-24T14:48:43.575Z,20.13
2023-05-24T14:51:10.970Z,19.97
2023-05-24T14:53:38.180Z,20.03
2023-05-24T14:56:08.709Z,20.01
2023-05-24T14:58:36.314Z,20.46
2023-05-24T15:01:03.496Z,20.82
2023-05-24T15:03:31.208Z,21.03
2023-05-24T15:05:59.024Z,21.34
2023-05-24T15:08:28.306Z,21.63
2023-05-24T15:10:58.716Z,21.71
2023-05-24T15:13:26.557Z,21.26
2023-05-24T15:15:56.735Z,21.23
2023-05-24T15:18:25.692Z,21.89
2023-05-24T15:20:54.391Z,22.36
2023-05-24T15:23:21.830Z,23.20
2023-05-24T15:25:49.579Z,22.81
2023-05-24T15:28:18.489Z,22.78
2023-05-24T15:30:47.577Z,22.53
2023-05-24T15:33:18.202Z,22.32
2023-05-24T15:35:56.022Z,21.64
2023-05-24T15:38:27.193Z,21.04
2023-05-24T15:40:55.272Z,21.45
2023-05-24T15:43:23.755Z,21.70
2023-05-24T15:45:51.364Z,21.75
2023-05-24T15:48:21.230Z,21.77
2023-05-24T15:51:22.589Z,21.91
2023-05-24T15:53:43.368Z,22.54
2023-05-24T15:56:10.923Z,23.21
2023-05-24T15:58:38.574Z,23.12
2023-05-24T16:01:53.848Z,22.87
2023-05-24T16:04:30.556Z,23.10
2023-05-24T16:07:29.217Z,22.52
2023-05-24T16:09:58.212Z,23.27
2023-05-24T16:12:30.157Z,23.09
2023-05-24T16:15:11.472Z,23.83
2023-05-24T16:18:09.890Z,24.00
2023-05-24T16:20:49.009Z,24.38
2023-05-24T16:23:44.775Z,23.69
2023-05-24T16:26:12.552Z,24.10
2023-05-24T16:28:39.839Z,24.46
2023-05-24T16:31:06.920Z,24.76
2023-05-24T16:33:33.915Z,24.55
2023-05-24T16:36:03.426Z,24.63
2023-05-24T16:38:33.545Z,24.37
2023-05-24T16:41:00.895Z,24.69
2023-05-24T16:43:27.731Z,24.91
2023-05-24T16:45:56.873Z,25.05
2023-05-24T16:48:28.717Z,25.13
2023-05-24T16:50:56.872Z,25.17
2023-05-24T16:53:26.149Z,25.41
2023-05-24T16:55:54.859Z,25.56
2023-05-24T16:58:28.272Z,25.75
2023-05-24T17:00:56.348Z,26.22
2023-05-24T17:03:30.121Z,26.09
2023-05-24T17:06:03.277Z,26.34
2023-05-24T17:08:38.358Z,26.21
2023-05-24T17:11:09.048Z,26.02
2023-05-24T17:13:38.701Z,26.04
2023-05-24T17:16:11.983Z,26.11
2023-05-24T17:18:39.008Z,26.56
2023-05-24T17:21:07.374Z,27.32
2023-05-24T17:23:37.457Z,26.71
2023-05-24T17:26:05.834Z,27.16
2023-05-24T17:28:34.817Z,27.69
2023-05-24T17:31:02.499Z,27.88
2023-05-24T17:33:31.513Z,27.73
2023-05-24T17:36:02.794Z,27.47
2023-05-24T17:38:33.397Z,27.73
2023-05-24T17:41:00.781Z,27.34
2023-05-24T17:43:32.927Z,27.65
2023-05-24T17:46:08.395Z,27.71
2023-05-24T17:48:37.837Z,28.32
2023-05-24T17:51:11.727Z,28.39
2023-05-24T17:53:41.135Z,27.73
2023-05-24T17:56:11.047Z,28.24
2023-05-24T17:58:40.450Z,28.25
2023-05-24T18:01:11.376Z,28.56
2023-05-24T18:03:40.927Z,28.36
2023-05-24T18:06:08.360Z,28.33
2023-05-24T18:08:43.245Z,28.33
2023-05-24T18:11:12.888Z,28.84
2023-05-24T18:13:42.281Z,28.60
2023-05-24T18:16:12.616Z,28.79
2023-05-24T18:18:40.912Z,28.80
2023-05-24T18:21:09.613Z,28.95
2023-05-24T18:23:40.034Z,29.30
2023-05-24T18:26:08.440Z,29.22
2023-05-24T18:28:41.427Z,29.54
2023-05-24T18:31:12.386Z,29.27
2023-05-24T18:33:39.949Z,29.88
2023-05-24T18:36:07.431Z,30.06
2023-05-24T18:38:35.150Z,29.65
2023-05-24T18:41:10.083Z,29.29
2023-05-24T18:43:37.405Z,29.63
2023-05-24T18:46:04.275Z,29.56
2023-05-24T18:48:31.112Z,29.63
2023-05-24T18:50:58.079Z,29.34
2023-05-24T18:53:28.482Z,28.48
2023-05-24T18:55:55.385Z,28.48
2023-05-24T18:58:22.213Z,28.10
2023-05-24T19:00:50.772Z,28.73
2023-05-24T19:03:17.730Z,28.34
2023-05-24T19:05:46.132Z,28.17
2023-05-24T19:08:13.165Z,27.98
2023-05-24T19:10:40.062Z,28.08
2023-05-24T19:13:07.180Z,28.27
2023-05-24T19:15:35.764Z,28.42
2023-05-24T19:18:03.373Z,28.33
2023-05-24T19:20:30.232Z,28.57
2023-05-24T19:22:57.230Z,28.57
2023-05-24T19:25:23.885Z,28.67
2023-05-24T19:30:21.133Z,28.67
2023-05-24T19:32:48.196Z,28.96
2023-05-24T19:35:15.894Z,29.39
2023-05-24T19:37:42.651Z,29.65
2023-05-24T19:40:10.085Z,29.62
2023-05-24T19:42:36.983Z,29.49
2023-05-24T19:45:05.504Z,29.70
2023-05-24T19:47:32.582Z,30.19
2023-05-24T19:49:59.571Z,30.00
2023-05-24T19:52:26.334Z,30.07
2023-05-24T19:54:53.230Z,30.36
2023-05-24T19:57:20.009Z,30.09
2023-05-24T19:59:46.924Z,29.89
2023-05-24T20:02:14.376Z,30.34
2023-05-24T20:04:42.063Z,30.11
2023-05-24T20:07:09.099Z,30.31
2023-05-24T20:09:36.699Z,30.60
2023-05-24T20:12:04.615Z,30.82
2023-05-24T20:14:34.992Z,31.18
2023-05-24T20:17:02.268Z,30.89
2023-05-24T20:19:29.364Z,30.61
2023-05-24T20:21:56.477Z,30.97
2023-05-24T20:24:23.321Z,31.25
2023-05-24T20:26:50.310Z,31.27
2023-05-24T20:29:17.988Z,30.85
2023-05-24T20:31:44.969Z,31.54
2023-05-24T20:34:12.473Z,31.86
2023-05-24T20:36:43.395Z,31.55
2023-05-24T20:39:10.636Z,31.84
2023-05-24T20:41:37.617Z,31.97
2023-05-24T20:44:04.535Z,32.04
2023-05-24T20:46:31.796Z,31.78
2023-05-24T20:48:58.933Z,32.18
2023-05-24T20:51:28.546Z,31.90
2023-05-24T20:53:55.984Z,31.96
2023-05-24T20:56:24.658Z,31.42
2023-05-24T20:58:53.485Z,31.58
2023-05-24T21:01:20.960Z,31.76
2023-05-24T21:03:48.041Z,31.92
2023-05-24T21:06:15.172Z,32.29
2023-05-24T21:08:42.846Z,31.73
2023-05-24T21:11:09.622Z,32.65
2023-05-24T21:13:36.623Z,32.37
2023-05-24T21:16:03.748Z,31.76
2023-05-24T21:18:30.595Z,32.19
2023-05-24T21:20:57.794Z,32.41
2023-05-24T21:23:24.893Z,32.28
2023-05-24T21:25:51.769Z,32.33
2023-05-24T21:28:18.541Z,32.54
2023-05-24T21:30:45.450Z,32.71
2023-05-24T21:33:15.871Z,32.46
2023-05-24T21:36:56.322Z,32.50
2023-05-24T21:48:05.742Z,32.90
2023-05-24T21:50:58.228Z,33.60
2023-05-24T21:54:18.702Z,33.35
2023-05-24T21:57:02.437Z,33.50
2023-05-24T21:59:35.460Z,34.12
2023-05-24T22:02:02.417Z,34.16
2023-05-24T22:04:32.294Z,34.09
2023-05-24T22:06:59.112Z,34.27
2023-05-24T22:09:25.876Z,34.96
2023-05-24T22:11:52.712Z,34.76
2023-05-24T22:14:19.543Z,35.18
2023-05-24T22:16:46.890Z,35.79
2023-05-24T22:19:16.784Z,35.92
2023-05-24T22:21:50.357Z,35.54
2023-05-24T22:24:17.348Z,36.30
2023-05-24T22:26:46.929Z,36.73
2023-05-24T22:29:16.640Z,36.54
2023-05-24T22:31:43.710Z,37.02
2023-05-24T22:34:11.683Z,36.93
2023-05-24T22:36:39.040Z,37.01
2023-05-24T22:39:06.264Z,38.08
2023-05-24T22:41:33.077Z,38.25
2023-05-24T22:43:59.936Z,38.32
2023-05-24T22:46:26.900Z,38.31
2023-05-24T22:48:53.918Z,38.14
2023-05-24T22:51:20.666Z,39.02
2023-05-24T22:53:49.176Z,38.68
2023-05-24T22:56:16.427Z,39.25
2023-05-24T22:58:43.226Z,39.17
2023-05-24T23:01:09.975Z,39.05
2023-05-24T23:03:36.814Z,39.06
2023-05-24T23:06:04.608Z,39.55
2023-05-24T23:08:34.527Z,39.15
2023-05-24T23:11:01.439Z,39.62
2023-05-24T23:13:33.248Z,39.51
2023-05-24T23:16:00.721Z,39.83
2023-05-24T23:18:28.906Z,39.56
2023-05-24T23:20:56.197Z,39.77
2023-05-24T23:23:25.030Z,39.80
2023-05-24T23:25:52.054Z,40.28
2023-05-24T23:28:19.640Z,39.87
2023-05-24T23:30:46.746Z,40.29
2023-05-24T23:33:13.710Z,40.05
2023-05-24T23:35:40.810Z,40.56
2023-05-24T23:38:07.731Z,39.97
2023-05-24T23:40:36.530Z,40.38
2023-05-24T23:43:04.212Z,40.48
2023-05-24T23:45:31.376Z,40.88
2023-05-24T23:47:59.099Z,40.73
2023-05-24T23:50:27.502Z,40.53
2023-05-24T23:52:55.128Z,41.01
2023-05-24T23:55:23.862Z,40.92
2023-05-24T23:57:52.148Z,41.47
